Time;durP1;ratioP1;P1;durP2;ratioP2;P2;SDS_P1;SDS_P2;PMS_P1;PMS_P2;Temp;Humidity;BMP_temperature;BMP_pressure;BME280_temperature;BME280_humidity;BME280_pressure;Samples;Min_cycle;Max_cycle;Signal;HPM_P1;HPM_P2
2022/06/08 00:00:30;;;;;;;2.37;1.60;;;;;;;19.26;61.40;97231.97;5036554;28;20429;-71
2022/06/08 00:03:21;;;;;;;4.03;1.70;;;;;;;19.15;61.94;97236.88;5059216;28;20420;-71
2022/06/08 00:05:46;;;;;;;4.20;1.40;;;;;;;19.04;62.44;97229.53;5048754;28;20472;-71
2022/06/08 00:08:11;;;;;;;1.57;1.47;;;;;;;18.99;63.01;97232.81;5053881;28;20488;-70
2022/06/08 00:10:37;;;;;;;1.60;1.50;;;;;;;18.96;63.28;97230.59;5054299;28;20237;-71
2022/06/08 00:13:03;;;;;;;9.50;1.93;;;;;;;19.02;63.23;97226.28;5054010;28;20210;-71
2022/06/08 00:15:29;;;;;;;2.50;1.70;;;;;;;19.02;62.51;97227.09;5052396;28;20252;-70
2022/06/08 00:17:54;;;;;;;2.93;1.60;;;;;;;19.04;62.97;97226.88;5054164;28;20437;-71
2022/06/08 00:20:20;;;;;;;1.40;1.30;;;;;;;19.04;62.63;97224.22;5054167;28;20656;-72
2022/06/08 00:22:46;;;;;;;2.20;1.50;;;;;;;19.01;62.61;97224.66;5053928;28;20697;-71
2022/06/08 00:25:13;;;;;;;2.97;1.70;;;;;;;19.06;62.28;97216.06;5052017;28;20516;-72
2022/06/08 00:27:38;;;;;;;2.90;1.87;;;;;;;19.06;62.56;97221.38;5053655;28;20241;-71
2022/06/08 00:30:06;;;;;;;3.80;1.67;;;;;;;19.04;62.63;97213.59;5053474;28;20516;-72
2022/06/08 00:32:32;;;;;;;4.63;1.60;;;;;;;19.03;62.85;97218.09;5053774;28;20191;-71
2022/06/08 00:34:58;;;;;;;4.10;1.30;;;;;;;18.97;62.80;97220.75;5056621;28;20501;-71
2022/06/08 00:37:24;;;;;;;3.27;1.60;;;;;;;19.03;62.33;97206.66;5049185;28;20203;-72
2022/06/08 00:39:49;;;;;;;2.90;1.60;;;;;;;19.02;61.90;97205.84;5053691;28;20436;-71
2022/06/08 00:42:15;;;;;;;1.90;1.50;;;;;;;19.00;62.18;97202.56;5053265;28;20197;-73
2022/06/08 00:44:47;;;;;;;1.60;1.50;;;;;;;19.00;62.03;97201.78;5053483;28;20190;-71
2022/06/08 00:47:17;;;;;;;3.50;1.50;;;;;;;18.96;62.59;97203.19;5051976;28;20214;-70
2022/06/08 00:49:48;;;;;;;1.70;1.60;;;;;;;18.98;62.36;97201.97;5052564;28;20432;-71
2022/06/08 00:52:14;;;;;;;7.03;1.97;;;;;;;18.96;61.68;97192.56;5052127;28;20440;-72
2022/06/08 00:54:42;;;;;;;2.17;1.80;;;;;;;18.94;61.84;97199.94;5050743;28;20469;-71
2022/06/08 00:57:14;;;;;;;1.90;1.40;;;;;;;18.92;61.89;97197.47;5059744;28;20449;-71
2022/06/08 00:59:46;;;;;;;4.07;1.80;;;;;;;18.97;61.23;97197.66;5051808;28;20800;-71
2022/06/08 01:02:11;;;;;;;2.90;1.50;;;;;;;18.93;61.80;97201.75;5052304;28;20418;-72
2022/06/08 01:04:37;;;;;;;6.30;1.90;;;;;;;18.87;62.72;97198.09;5060189;28;20505;-70
2022/06/08 01:07:03;;;;;;;1.60;1.50;;;;;;;18.75;63.28;97194.41;5052850;28;20352;-70
2022/06/08 01:09:38;;;;;;;4.40;1.80;;;;;;;18.67;63.79;97192.78;5053002;28;20691;-72
2022/06/08 01:12:12;;;;;;;3.00;1.90;;;;;;;18.64;63.82;97201.13;5040879;28;20440;-72
2022/06/08 01:14:38;;;;;;;4.50;1.60;;;;;;;18.65;64.04;97194.00;5053064;28;20799;-71
2022/06/08 01:17:07;;;;;;;2.13;1.70;;;;;;;18.63;63.82;97188.88;5052237;28;20460;-71
2022/06/08 01:19:37;;;;;;;6.17;2.37;;;;;;;18.51;64.33;97180.75;5053129;28;20577;-72
2022/06/08 01:22:04;;;;;;;3.70;2.13;;;;;;;18.48;64.52;97180.31;5051549;28;20430;-71
2022/06/08 01:24:30;;;;;;;2.63;1.37;;;;;;;18.50;64.54;97178.28;5052223;28;20935;-70
2022/06/08 01:27:15;;;;;;;3.40;1.60;;;;;;;18.42;64.40;97179.28;5034876;28;20511;-72
2022/06/08 01:30:03;;;;;;;1.70;1.60;;;;;;;18.43;64.30;97170.31;5046240;28;20456;-72
2022/06/08 01:32:41;;;;;;;4.07;1.87;;;;;;;18.44;64.25;97177.25;5042887;28;20418;-71
2022/06/08 01:35:27;;;;;;;2.10;1.90;;;;;;;18.42;64.32;97166.03;5055193;28;20440;-70
2022/06/08 01:38:10;;;;;;;2.77;1.73;;;;;;;18.33;64.32;97169.91;5051099;28;20449;-71
2022/06/08 01:40:58;;;;;;;5.30;1.90;;;;;;;18.27;64.80;97166.22;5045764;28;20433;-72
2022/06/08 01:43:27;;;;;;;11.00;1.97;;;;;;;18.31;64.73;97166.63;5051211;28;20414;-71
2022/06/08 01:46:22;;;;;;;4.50;2.00;;;;;;;18.25;64.70;97163.78;5052361;28;20430;-73
2022/06/08 01:49:25;;;;;;;3.73;1.80;;;;;;;18.26;64.71;97165.41;5047138;28;20472;-71
2022/06/08 01:52:09;;;;;;;3.10;1.90;;;;;;;18.18;64.87;97162.13;5049832;28;20414;-72
2022/06/08 01:54:46;;;;;;;3.93;2.30;;;;;;;18.18;64.87;97159.47;5042960;28;20497;-70
2022/06/08 01:57:21;;;;;;;6.90;1.80;;;;;;;18.19;64.93;97153.97;5050482;28;20453;-70
2022/06/08 02:00:19;;;;;;;5.40;1.80;;;;;;;18.20;65.03;97157.44;5051055;28;20447;-71
2022/06/08 02:03:03;;;;;;;4.73;1.80;;;;;;;18.13;65.03;97157.44;5039097;28;20958;-71
2022/06/08 02:05:37;;;;;;;2.20;1.83;;;;;;;18.08;64.98;97146.59;5043452;28;20484;-71
2022/06/08 02:08:31;;;;;;;1.87;1.70;;;;;;;18.08;64.87;97154.56;5051735;28;20955;-70
2022/06/08 02:11:33;;;;;;;2.17;1.97;;;;;;;18.09;65.02;97150.91;5034041;28;20430;-71
2022/06/08 02:14:01;;;;;;;6.20;2.43;;;;;;;17.99;64.84;97156.59;5043802;28;20895;-72
2022/06/08 02:16:35;;;;;;;3.70;2.00;;;;;;;18.00;65.19;97147.59;5051397;28;20441;-71
2022/06/08 02:19:08;;;;;;;3.77;2.03;;;;;;;17.99;65.13;97142.53;5050795;28;20422;-71
2022/06/08 02:21:47;;;;;;;2.30;2.10;;;;;;;17.91;65.24;97141.66;5043552;28;20425;-70
2022/06/08 02:24:21;;;;;;;3.20;1.83;;;;;;;17.92;65.13;97139.81;5048974;28;20441;-71
2022/06/08 02:26:51;;;;;;;3.00;1.90;;;;;;;17.87;65.18;97132.47;5049605;28;20490;-71
2022/06/08 02:29:21;;;;;;;3.67;2.00;;;;;;;17.80;65.20;97134.28;5050594;28;20947;-72
2022/06/08 02:31:51;;;;;;;2.07;1.87;;;;;;;17.84;65.21;97135.53;5050554;28;20779;-71
2022/06/08 02:34:28;;;;;;;7.63;2.03;;;;;;;17.86;64.70;97133.50;5051169;28;20492;-70
2022/06/08 02:37:17;;;;;;;3.03;2.03;;;;;;;17.88;64.61;97131.47;5061251;28;20433;-71
2022/06/08 02:39:48;;;;;;;6.30;2.57;;;;;;;17.85;64.60;97134.50;5044503;28;20788;-72
2022/06/08 02:42:19;;;;;;;2.93;2.33;;;;;;;17.78;64.53;97125.72;5050010;28;20425;-71
2022/06/08 02:44:47;;;;;;;5.43;2.10;;;;;;;17.75;64.66;97129.59;5050421;28;20418;-72
2022/06/08 02:47:31;;;;;;;4.23;2.10;;;;;;;17.76;64.76;97130.41;5049500;28;20797;-71
2022/06/08 02:50:04;;;;;;;5.57;2.07;;;;;;;17.76;64.42;97125.91;5051451;28;20461;-72
2022/06/08 02:52:30;;;;;;;5.23;2.60;;;;;;;17.72;64.45;97126.53;5050362;28;20436;-71
2022/06/08 02:54:57;;;;;;;4.77;1.87;;;;;;;17.63;64.78;97126.72;5050355;28;20469;-72
2022/06/08 02:57:46;;;;;;;2.47;1.83;;;;;;;17.60;64.84;97120.97;5050893;28;20682;-72
2022/06/08 03:00:14;;;;;;;7.30;2.20;;;;;;;17.64;64.69;97114.25;5049956;28;20433;-72
2022/06/08 03:02:46;;;;;;;2.03;1.93;;;;;;;17.66;64.72;97118.34;5053937;28;20409;-72
2022/06/08 03:05:25;;;;;;;5.53;2.50;;;;;;;17.60;64.33;97105.91;5056712;28;20911;-71
2022/06/08 03:08:05;;;;;;;2.93;2.50;;;;;;;17.58;64.57;97109.78;5054557;28;20437;-71
2022/06/08 03:10:34;;;;;;;3.30;2.50;;;;;;;17.59;64.69;97108.75;5039682;28;20450;-71
2022/06/08 03:13:07;;;;;;;8.47;2.63;;;;;;;17.59;64.79;97108.75;5023715;28;20494;-72
2022/06/08 03:15:33;;;;;;;2.70;2.43;;;;;;;17.56;65.06;97102.00;5029177;28;21080;-71
2022/06/08 03:17:59;;;;;;;4.57;1.90;;;;;;;17.62;64.79;97103.88;5045270;28;20455;-71
2022/06/08 03:20:25;;;;;;;4.10;2.23;;;;;;;17.59;64.62;97091.03;5040368;28;20188;-71
2022/06/08 03:22:51;;;;;;;4.53;2.07;;;;;;;17.58;64.62;97092.03;5030235;28;20180;-71
2022/06/08 03:25:17;;;;;;;2.50;2.30;;;;;;;17.58;64.88;97102.63;5031762;28;20426;-73
2022/06/08 03:27:44;;;;;;;2.60;2.17;;;;;;;17.51;64.73;97091.22;5035734;28;20195;-72
2022/06/08 03:30:12;;;;;;;3.43;2.20;;;;;;;17.52;64.76;97095.47;5046838;28;20187;-70
2022/06/08 03:32:37;;;;;;;2.50;2.30;;;;;;;17.43;65.12;97094.84;5031889;28;20777;-72
2022/06/08 03:35:04;;;;;;;3.00;2.33;;;;;;;17.34;65.23;97099.50;5039540;28;20436;-72
2022/06/08 03:37:29;;;;;;;4.57;2.90;;;;;;;17.45;65.04;97092.00;5071903;28;20218;-72
2022/06/08 03:39:55;;;;;;;3.60;2.00;;;;;;;17.51;64.79;97101.81;5053623;28;20422;-72
2022/06/08 03:42:20;;;;;;;6.80;2.80;;;;;;;17.53;64.66;97091.81;5051985;28;20618;-73
2022/06/08 03:44:46;;;;;;;5.30;3.00;;;;;;;17.55;64.84;97097.72;5055709;28;20179;-73
2022/06/08 03:47:17;;;;;;;7.83;3.40;;;;;;;17.51;64.74;97088.56;5044833;28;20218;-71
2022/06/08 03:49:42;;;;;;;2.80;2.57;;;;;;;17.49;65.05;97090.59;5058536;28;20187;-72
2022/06/08 03:52:13;;;;;;;4.10;2.50;;;;;;;17.55;65.21;97094.28;5051593;28;20465;-72
2022/06/08 03:54:42;;;;;;;3.83;2.33;;;;;;;17.59;65.16;97082.25;5050926;28;20562;-71
2022/06/08 03:57:09;;;;;;;4.20;2.67;;;;;;;17.61;64.95;97085.50;5058309;28;20517;-72
2022/06/08 03:59:36;;;;;;;3.50;2.50;;;;;;;17.65;65.40;97090.22;5048502;28;20937;-72
2022/06/08 04:02:02;;;;;;;8.63;2.30;;;;;;;17.60;64.44;97086.53;5059818;28;20468;-71
2022/06/08 04:04:28;;;;;;;4.23;2.20;;;;;;;17.63;63.94;97086.97;5023718;28;20432;-71
2022/06/08 04:06:54;;;;;;;7.70;2.87;;;;;;;17.68;64.45;97098.78;5041844;28;20437;-72
2022/06/08 04:09:19;;;;;;;3.13;2.20;;;;;;;17.71;63.57;97098.38;5050285;28;20430;-71
2022/06/08 04:11:46;;;;;;;4.57;2.30;;;;;;;17.78;63.28;97100.03;5049237;28;20260;-72
2022/06/08 04:14:11;;;;;;;7.47;2.23;;;;;;;17.83;62.93;97091.47;5055308;28;20674;-73
2022/06/08 04:16:37;;;;;;;5.83;3.37;;;;;;;17.87;63.41;97098.03;5047898;28;20516;-72
2022/06/08 04:19:03;;;;;;;3.60;2.23;;;;;;;17.93;61.92;97091.09;5054443;28;20290;-72
2022/06/08 04:21:28;;;;;;;6.13;3.17;;;;;;;17.96;61.92;97088.84;5057769;28;20315;-71
2022/06/08 04:23:54;;;;;;;4.63;2.90;;;;;;;18.04;61.90;97093.16;5058459;28;20235;-71
2022/06/08 04:26:20;;;;;;;7.67;1.90;;;;;;;18.09;61.34;97090.72;5053642;28;20183;-72
2022/06/08 04:28:46;;;;;;;2.40;1.60;;;;;;;18.09;59.62;97092.56;5060555;28;20467;-71
2022/06/08 04:31:12;;;;;;;4.70;1.80;;;;;;;18.09;59.78;97092.56;5055679;28;20430;-72
2022/06/08 04:33:38;;;;;;;3.70;1.87;;;;;;;18.06;59.03;97092.97;5054002;28;20307;-72
2022/06/08 04:36:05;;;;;;;10.73;2.17;;;;;;;18.09;58.85;97101.31;5057433;28;20524;-73
2022/06/08 04:38:31;;;;;;;3.37;1.73;;;;;;;18.11;58.33;97088.69;5062392;28;20199;-71
2022/06/08 04:40:56;;;;;;;2.00;1.63;;;;;;;18.16;58.69;97090.72;5053851;28;20873;-71
2022/06/08 04:43:22;;;;;;;4.13;1.63;;;;;;;18.11;58.03;97078.06;5058454;28;20456;-71
2022/06/08 04:45:47;;;;;;;3.33;1.93;;;;;;;18.11;58.20;97074.63;5051955;28;20561;-70
2022/06/08 04:48:14;;;;;;;3.20;1.80;;;;;;;18.02;58.84;97078.50;5051006;28;20350;-72
2022/06/08 04:50:39;;;;;;;7.07;1.80;;;;;;;18.05;58.37;97078.06;5052745;28;20864;-71
2022/06/08 04:53:05;;;;;;;2.90;1.60;;;;;;;18.07;58.85;97078.69;5052928;28;20492;-71
2022/06/08 04:55:31;;;;;;;3.63;2.13;;;;;;;18.07;58.68;97086.63;5057117;28;20190;-71
2022/06/08 04:57:56;;;;;;;4.07;2.03;;;;;;;18.06;59.18;97085.84;5064892;28;20211;-72
2022/06/08 05:00:23;;;;;;;5.00;1.80;;;;;;;18.07;58.74;97078.69;5052687;28;20246;-70
2022/06/08 05:02:50;;;;;;;4.87;2.17;;;;;;;18.06;59.84;97077.06;5058644;28;20341;-71
2022/06/08 05:05:36;;;;;;;6.23;1.73;;;;;;;18.12;60.01;97081.56;5062027;28;20443;-71
2022/06/08 05:08:03;;;;;;;3.63;1.70;;;;;;;18.19;59.33;97084.22;5052287;28;20959;-72
2022/06/08 05:10:31;;;;;;;2.30;1.63;;;;;;;18.22;58.59;97081.97;5053084;28;20426;-71
2022/06/08 05:12:57;;;;;;;3.00;1.97;;;;;;;18.23;59.02;97082.75;5045445;28;20476;-71
2022/06/08 05:15:29;;;;;;;11.63;2.03;;;;;;;18.28;59.28;97093.59;5048559;28;20433;-70
2022/06/08 05:17:56;;;;;;;4.47;2.10;;;;;;;18.33;59.19;97088.50;5052821;28;20211;-70
2022/06/08 05:20:22;;;;;;;8.93;2.07;;;;;;;18.39;59.40;97094.81;5047023;28;20437;-71
2022/06/08 05:22:48;;;;;;;4.20;1.60;;;;;;;18.27;58.85;97086.66;5051201;28;20437;-71
2022/06/08 05:25:19;;;;;;;4.73;2.20;;;;;;;18.29;58.63;97092.56;5052243;28;20445;-71
2022/06/08 05:27:45;;;;;;;10.70;1.73;;;;;;;18.38;58.16;97094.00;5051732;28;20453;-71
2022/06/08 05:30:11;;;;;;;5.80;2.00;;;;;;;18.32;57.75;97094.81;5052266;28;20444;-71
2022/06/08 05:32:37;;;;;;;4.03;2.17;;;;;;;18.41;57.30;97093.59;5052911;28;20291;-71
2022/06/08 05:35:03;;;;;;;4.50;1.97;;;;;;;18.46;57.54;97087.66;5056091;28;20464;-72
2022/06/08 05:37:29;;;;;;;6.20;1.83;;;;;;;18.56;57.40;97095.22;5052298;28;21001;-71
2022/06/08 05:39:54;;;;;;;3.83;2.23;;;;;;;18.66;58.28;97084.97;5052247;28;20188;-71
2022/06/08 05:42:20;;;;;;;8.83;1.87;;;;;;;18.67;57.66;97080.47;5052080;28;20179;-71
2022/06/08 05:44:45;;;;;;;3.80;1.73;;;;;;;18.61;57.52;97086.63;5052553;28;20207;-71
2022/06/08 05:47:12;;;;;;;5.40;2.00;;;;;;;18.65;57.33;97078.03;5051419;28;20203;-70
2022/06/08 05:49:37;;;;;;;5.87;2.40;;;;;;;18.54;56.67;97074.16;5052325;28;20175;-71
2022/06/08 05:52:03;;;;;;;3.27;1.60;;;;;;;18.63;56.99;97077.44;5053146;28;20440;-70
2022/06/08 05:54:29;;;;;;;2.90;2.17;;;;;;;18.50;56.83;97078.28;5052120;28;20214;-70
2022/06/08 05:56:55;;;;;;;5.47;1.60;;;;;;;18.63;56.84;97080.06;5052021;28;20440;-71
2022/06/08 05:59:20;;;;;;;4.63;1.97;;;;;;;18.68;56.61;97082.09;5050338;28;20441;-72
2022/06/08 06:01:46;;;;;;;5.03;1.60;;;;;;;18.63;56.30;97066.00;5052275;28;20186;-70
2022/06/08 06:04:12;;;;;;;4.97;1.90;;;;;;;18.68;56.77;97068.84;5057541;28;20545;-71
2022/06/08 06:06:43;;;;;;;10.53;2.17;;;;;;;18.81;56.62;97070.66;5048123;28;20186;-71
2022/06/08 06:09:10;;;;;;;11.43;1.90;;;;;;;18.95;56.97;97066.97;5051987;28;20783;-71
2022/06/08 06:11:36;;;;;;;8.30;1.77;;;;;;;19.00;56.53;97069.81;5034143;28;20425;-71
2022/06/08 06:14:02;;;;;;;7.40;1.90;;;;;;;19.07;56.70;97071.63;5051705;28;20481;-70
2022/06/08 06:16:27;;;;;;;4.07;1.80;;;;;;;19.08;55.82;97066.09;5050000;28;20321;-71
2022/06/08 06:18:53;;;;;;;10.83;1.70;;;;;;;19.16;55.85;97065.06;5051871;28;20248;-70
2022/06/08 06:21:20;;;;;;;6.10;2.13;;;;;;;19.27;55.90;97067.03;5051794;28;20604;-71
2022/06/08 06:23:46;;;;;;;5.10;1.80;;;;;;;19.32;55.44;97055.78;5051779;28;20690;-71
2022/06/08 06:26:12;;;;;;;8.33;1.70;;;;;;;19.39;55.18;97053.91;5051770;28;20426;-70
2022/06/08 06:28:37;;;;;;;12.60;1.90;;;;;;;19.40;54.74;97052.06;5051429;28;20457;-70
2022/06/08 06:31:28;;;;;;;5.53;1.80;;;;;;;19.48;54.18;97051.81;5051696;28;20645;-70
2022/06/08 06:34:07;;;;;;;6.53;1.80;;;;;;;19.57;54.06;97045.22;5050409;28;20211;-71
2022/06/08 06:36:32;;;;;;;5.33;1.83;;;;;;;19.67;53.90;97042.09;5054086;28;20447;-71
2022/06/08 06:38:58;;;;;;;4.90;1.50;;;;;;;19.73;53.44;97040.41;5055091;28;20441;-71
2022/06/08 06:41:26;;;;;;;5.83;1.27;;;;;;;19.68;52.48;97038.41;5051154;28;20183;-70
2022/06/08 06:43:52;;;;;;;5.93;1.63;;;;;;;19.69;53.47;97034.72;5051581;28;20266;-71
2022/06/08 06:46:17;;;;;;;7.50;1.73;;;;;;;19.73;52.94;97029.78;5051009;28;21009;-73
2022/06/08 06:48:43;;;;;;;7.23;1.77;;;;;;;19.76;53.12;97040.81;5056697;28;20962;-71
2022/06/08 06:51:10;;;;;;;3.70;1.43;;;;;;;19.71;52.62;97043.28;5053665;28;20270;-70
2022/06/08 06:53:36;;;;;;;5.10;1.90;;;;;;;19.69;53.10;97040.03;5050908;28;20457;-71
2022/06/08 06:56:02;;;;;;;2.73;1.40;;;;;;;19.74;53.11;97039.38;5051028;28;20429;-71
2022/06/08 06:58:28;;;;;;;6.60;1.70;;;;;;;19.75;53.27;97033.03;5042881;28;20207;-71
2022/06/08 07:00:53;;;;;;;4.17;1.70;;;;;;;19.76;53.28;97043.47;5051128;28;20934;-71
2022/06/08 07:03:19;;;;;;;9.43;2.20;;;;;;;19.86;52.77;97043.00;5058189;28;20222;-70
2022/06/08 07:05:44;;;;;;;5.20;1.37;;;;;;;19.81;53.28;97034.84;5051007;28;20187;-72
2022/06/08 07:08:10;;;;;;;4.57;1.70;;;;;;;19.84;52.65;97046.88;5050845;28;20203;-71
2022/06/08 07:10:38;;;;;;;3.20;1.40;;;;;;;19.98;52.65;97035.16;5050639;28;20642;-72
2022/06/08 07:13:04;;;;;;;2.80;1.30;;;;;;;19.96;52.13;97031.91;5050544;28;20568;-72
2022/06/08 07:15:30;;;;;;;10.83;2.17;;;;;;;19.99;52.35;97026.16;5050934;28;20421;-71
2022/06/08 07:17:55;;;;;;;2.63;1.43;;;;;;;20.05;52.50;97027.94;5050647;28;20441;-72
2022/06/08 07:20:21;;;;;;;3.50;1.50;;;;;;;20.09;52.12;97023.00;5051418;28;20190;-72
2022/06/08 07:22:48;;;;;;;4.13;1.50;;;;;;;20.17;52.82;97021.91;5059418;28;20179;-71
2022/06/08 07:25:14;;;;;;;6.97;1.50;;;;;;;20.24;51.86;97020.00;5050829;28;20508;-71
2022/06/08 07:27:40;;;;;;;8.53;2.70;;;;;;;20.40;52.58;97023.94;5050641;28;20900;-72
2022/06/08 07:30:07;;;;;;;4.27;1.70;;;;;;;20.57;51.67;97018.84;5050059;28;20183;-73
2022/06/08 07:32:33;;;;;;;7.33;1.60;;;;;;;20.88;51.62;97014.47;5058809;28;20827;-70
2022/06/08 07:34:59;;;;;;;6.20;1.70;;;;;;;21.09;50.83;97017.69;5054218;28;20460;-71
2022/06/08 07:37:25;;;;;;;5.93;2.00;;;;;;;21.13;50.43;97009.00;5044667;28;20946;-71
2022/06/08 07:39:51;;;;;;;3.60;1.60;;;;;;;21.26;50.00;97004.53;5049659;28;20183;-71
2022/06/08 07:42:17;;;;;;;5.70;1.80;;;;;;;21.39;49.38;97001.69;5050577;28;20441;-72
2022/06/08 07:44:43;;;;;;;9.23;1.80;;;;;;;21.62;49.71;96995.66;5051185;28;20167;-70
2022/06/08 07:47:10;;;;;;;5.50;2.00;;;;;;;21.79;49.35;96987.00;5048356;28;20511;-71
2022/06/08 07:49:39;;;;;;;7.77;1.90;;;;;;;21.97;48.59;96993.28;5050510;28;20429;-72
2022/06/08 07:52:13;;;;;;;2.57;1.60;;;;;;;22.11;47.67;96989.34;5053860;28;20920;-71
2022/06/08 07:54:40;;;;;;;10.50;1.57;;;;;;;21.87;47.88;96984.00;5054477;28;20543;-71
2022/06/08 07:57:07;;;;;;;3.47;1.40;;;;;;;21.86;47.41;96986.91;5053848;28;20461;-71
2022/06/08 07:59:36;;;;;;;5.00;1.67;;;;;;;22.00;47.02;96982.16;5053062;28;20428;-71
2022/06/08 08:02:04;;;;;;;3.33;1.40;;;;;;;22.31;47.29;96972.16;5054178;28;20445;-70
2022/06/08 08:04:30;;;;;;;4.13;1.17;;;;;;;22.45;46.41;96970.09;5060525;28;20440;-72
2022/06/08 08:06:55;;;;;;;5.63;1.50;;;;;;;22.56;45.90;96963.94;5053540;28;20433;-71
2022/06/08 08:09:22;;;;;;;5.00;1.60;;;;;;;22.60;44.51;96965.09;5053767;28;20433;-71
2022/06/08 08:11:52;;;;;;;3.20;1.20;;;;;;;22.80;44.75;96959.34;5054021;28;20538;-71
2022/06/08 08:14:19;;;;;;;7.23;1.73;;;;;;;22.70;43.88;96954.59;5050969;28;20492;-71
2022/06/08 08:16:45;;;;;;;4.30;1.53;;;;;;;23.02;43.43;96961.34;5052619;28;20433;-71
2022/06/08 08:19:13;;;;;;;4.30;1.37;;;;;;;23.08;43.64;96954.25;5053815;28;21083;-70
2022/06/08 08:21:39;;;;;;;4.70;1.50;;;;;;;23.27;42.65;96957.56;5054083;28;20204;-70
2022/06/08 08:24:06;;;;;;;5.57;1.40;;;;;;;23.51;43.16;96957.44;5019484;28;20805;-71
2022/06/08 08:26:32;;;;;;;6.10;1.53;;;;;;;23.37;42.48;96946.25;5052035;28;20183;-71
2022/06/08 08:28:57;;;;;;;4.30;1.40;;;;;;;23.57;43.37;96951.94;5035807;28;20458;-70
2022/06/08 08:31:23;;;;;;;3.60;1.17;;;;;;;23.89;43.00;96943.31;5053603;28;20183;-71
2022/06/08 08:33:49;;;;;;;3.73;1.50;;;;;;;24.12;43.03;96936.22;5053183;28;20250;-71
2022/06/08 08:36:14;;;;;;;2.70;1.40;;;;;;;24.38;43.06;96941.91;5057091;28;20190;-71
2022/06/08 08:38:40;;;;;;;4.53;1.40;;;;;;;24.59;42.81;96936.81;5052765;28;20278;-70
2022/06/08 08:42:20;;;;;;;4.50;1.40;;;;;;;24.82;41.46;96938.44;5053281;28;20193;-70
2022/06/08 08:43:51;;;;;;;4.13;1.67;;;;;;;25.03;40.19;96931.41;5053348;28;20194;-70
2022/06/08 08:46:27;;;;;;;5.73;1.50;;;;;;;24.89;39.98;96936.38;5052850;28;20858;-70
2022/06/08 08:49:08;;;;;;;3.33;1.10;;;;;;;25.11;41.34;96933.66;5053311;28;20207;-71
2022/06/08 08:51:43;;;;;;;4.43;1.60;;;;;;;24.88;39.10;96926.72;5047428;28;20441;-71
2022/06/08 08:54:24;;;;;;;11.07;1.80;;;;;;;24.53;39.43;96930.56;5053059;28;20472;-71
2022/06/08 08:56:53;;;;;;;4.20;1.30;;;;;;;24.60;37.98;96919.69;5051550;28;20441;-71
2022/06/08 08:59:24;;;;;;;5.97;1.27;;;;;;;24.25;39.21;96915.50;5051221;28;20426;-71
2022/06/08 09:01:52;;;;;;;3.10;1.10;;;;;;;24.34;38.25;96903.28;5050426;28;20794;-72
2022/06/08 09:04:26;;;;;;;2.70;1.20;;;;;;;24.86;38.40;96902.03;5058902;28;20436;-71
2022/06/08 09:06:51;;;;;;;4.13;1.10;;;;;;;25.03;38.69;96901.13;5051130;28;20426;-69
2022/06/08 09:09:24;;;;;;;2.57;1.10;;;;;;;24.97;37.82;96909.13;5035340;28;20928;-70
2022/06/08 09:11:50;;;;;;;3.00;1.30;;;;;;;24.90;37.32;96900.47;5053136;28;20201;-69
2022/06/08 09:14:44;;;;;;;2.60;1.00;;;;;;;24.73;37.90;96902.41;5052912;28;20986;-70
2022/06/08 09:17:18;;;;;;;3.77;1.30;;;;;;;24.81;37.37;96902.00;5052149;28;20453;-71
2022/06/08 09:19:47;;;;;;;3.37;1.43;;;;;;;25.12;36.56;96897.75;5052990;28;20432;-71
2022/06/08 09:22:13;;;;;;;5.00;1.20;;;;;;;25.21;36.78;96898.09;5050530;28;20437;-72
2022/06/08 09:24:46;;;;;;;2.87;1.10;;;;;;;25.48;36.76;96891.09;5052810;28;20765;-71
2022/06/08 09:27:16;;;;;;;2.70;1.20;;;;;;;25.48;35.78;96881.19;5051082;28;20811;-71
2022/06/08 09:29:51;;;;;;;8.60;1.00;;;;;;;25.49;35.08;96890.03;5052879;28;20417;-70
2022/06/08 09:32:41;;;;;;;7.23;1.30;;;;;;;25.81;35.55;96867.72;5051049;28;20435;-70
2022/06/08 09:35:15;;;;;;;3.07;1.17;;;;;;;25.57;35.15;96874.28;5055674;28;20530;-70
2022/06/08 09:37:41;;;;;;;2.47;0.93;;;;;;;25.91;35.15;96862.41;5052105;28;20494;-71
2022/06/08 09:40:36;;;;;;;4.13;1.20;;;;;;;25.87;33.62;96866.69;5050650;28;20441;-71
2022/06/08 09:43:36;;;;;;;5.67;1.50;;;;;;;26.01;33.85;96856.28;5051382;28;20712;-71
2022/06/08 09:46:05;;;;;;;2.63;1.10;;;;;;;26.08;34.73;96846.16;5048769;28;20453;-71
2022/06/08 09:51:58;;;;;;;2.87;1.10;;;;;;;25.86;34.26;96849.78;5052867;28;20433;-72
2022/06/08 09:54:56;;;;;;;3.10;1.00;;;;;;;25.95;33.62;96843.94;5052065;28;20465;-69
2022/06/08 09:57:38;;;;;;;6.60;1.30;;;;;;;25.85;33.28;96842.00;5045954;28;20516;-72
2022/06/08 10:00:04;;;;;;;3.33;1.10;;;;;;;25.85;33.55;96842.00;5051900;28;20422;-71
2022/06/08 10:03:05;;;;;;;1.80;1.07;;;;;;;25.71;33.07;96841.63;5054641;28;20443;-70
2022/06/08 10:06:09;;;;;;;2.47;1.03;;;;;;;25.74;33.79;96833.06;5050257;28;20235;-71
2022/06/08 10:08:43;;;;;;;2.60;0.97;;;;;;;25.76;34.27;96826.38;5047995;28;20452;-72
2022/06/08 10:14:42;;;;;;;2.60;1.07;;;;;;;25.64;32.96;96827.63;5039325;28;20496;-70
2022/06/08 10:17:19;;;;;;;2.10;0.90;;;;;;;25.70;33.54;96823.94;5049779;28;20525;-72
2022/06/08 10:19:47;;;;;;;4.70;1.03;;;;;;;25.73;35.12;96820.72;5050444;28;20528;-71
2022/06/08 10:22:13;;;;;;;2.10;1.07;;;;;;;25.95;34.29;96817.09;5049537;28;20512;-72
2022/06/08 10:24:50;;;;;;;7.13;1.17;;;;;;;26.33;33.56;96805.19;5044690;28;20426;-71
2022/06/08 10:27:38;;;;;;;3.27;1.00;;;;;;;26.41;33.27;96808.41;5049479;28;20453;-72
2022/06/08 10:30:24;;;;;;;3.37;1.20;;;;;;;26.83;32.59;96802.91;5050038;28;20906;-71
2022/06/08 10:33:13;;;;;;;4.70;1.10;;;;;;;27.15;31.45;96792.97;5050067;28;20438;-72
2022/06/08 10:35:42;;;;;;;2.63;1.03;;;;;;;27.44;31.25;96795.06;5046731;28;20453;-71
2022/06/08 10:38:17;;;;;;;2.80;1.20;;;;;;;27.43;31.16;96788.91;5032970;28;20859;-71
2022/06/08 10:44:00;;;;;;;5.40;1.10;;;;;;;26.84;30.31;96776.81;5047379;28;20792;-71
2022/06/08 10:46:29;;;;;;;2.73;0.90;;;;;;;27.42;30.11;96768.44;5050609;28;20486;-71
2022/06/08 10:48:55;;;;;;;1.87;0.90;;;;;;;27.84;30.38;96771.06;5051274;28;20499;-71
2022/06/08 10:51:26;;;;;;;2.80;0.90;;;;;;;27.85;30.27;96772.69;5051904;28;20472;-73
2022/06/08 10:56:38;;;;;;;2.13;0.90;;;;;;;27.53;28.69;96755.00;5043140;28;20417;-72
2022/06/08 10:59:03;;;;;;;3.10;1.00;;;;;;;27.52;28.96;96759.59;5049467;28;20449;-72
2022/06/08 11:01:55;;;;;;;2.07;1.00;;;;;;;27.19;29.06;96751.00;5051117;28;20494;-70
2022/06/08 11:04:27;;;;;;;3.13;0.93;;;;;;;26.78;28.94;96751.81;5056878;28;20187;-71
2022/06/08 11:07:02;;;;;;;2.80;1.10;;;;;;;26.70;29.80;96744.28;5050500;28;20433;-70
2022/06/08 11:09:33;;;;;;;2.03;0.93;;;;;;;26.83;26.67;96737.56;5042684;28;20456;-71
2022/06/08 11:12:03;;;;;;;3.87;0.90;;;;;;;27.21;28.42;96742.66;5050786;28;20436;-71
2022/06/08 11:14:48;;;;;;;4.30;0.93;;;;;;;27.66;28.82;96743.66;5042852;28;20467;-72
2022/06/08 11:17:33;;;;;;;1.50;1.10;;;;;;;27.75;28.76;96743.91;5050599;28;20445;-72
2022/06/08 11:20:19;;;;;;;6.40;1.33;;;;;;;27.47;28.16;96740.75;5051515;28;20428;-71
2022/06/08 11:22:51;;;;;;;3.83;1.00;;;;;;;27.23;29.27;96743.19;5043752;28;20947;-71
2022/06/08 11:25:24;;;;;;;2.70;0.87;;;;;;;27.05;29.23;96737.31;5051205;28;20460;-72
2022/06/08 11:28:28;;;;;;;2.70;1.17;;;;;;;27.20;28.91;96727.63;5053641;28;20923;-71
2022/06/08 11:30:56;;;;;;;3.43;1.00;;;;;;;27.14;29.73;96721.44;5050136;28;20457;-70
2022/06/08 11:33:22;;;;;;;2.80;0.90;;;;;;;26.74;29.00;96729.22;5053400;28;20460;-71
2022/06/08 11:36:08;;;;;;;2.23;0.90;;;;;;;26.92;28.89;96727.09;5058696;28;20448;-71
2022/06/08 11:38:53;;;;;;;3.73;1.00;;;;;;;27.17;28.68;96712.00;5053477;28;20206;-71
2022/06/08 11:41:30;;;;;;;1.87;1.10;;;;;;;27.04;27.79;96716.88;5054661;28;20425;-72
2022/06/08 11:43:56;;;;;;;3.67;1.10;;;;;;;27.20;28.38;96711.47;5054874;28;20429;-72
2022/06/08 11:46:33;;;;;;;2.70;0.93;;;;;;;27.42;27.79;96711.97;5054344;28;20464;-71
2022/06/08 11:48:58;;;;;;;1.53;0.90;;;;;;;27.57;27.21;96718.41;5053130;28;20457;-72
2022/06/08 11:51:40;;;;;;;1.30;0.80;;;;;;;27.64;27.76;96708.13;5055223;28;20433;-71
2022/06/08 11:54:16;;;;;;;5.17;1.10;;;;;;;27.43;27.57;96718.94;5054329;28;20203;-71
2022/06/08 11:57:01;;;;;;;3.43;0.97;;;;;;;27.53;27.31;96720.03;5054353;28;20432;-71
2022/06/08 11:59:27;;;;;;;4.17;1.10;;;;;;;27.69;28.03;96704.63;5054113;28;20425;-71
2022/06/08 12:01:55;;;;;;;3.93;0.90;;;;;;;27.90;27.23;96699.97;5054709;28;20471;-71
2022/06/08 12:04:26;;;;;;;4.20;0.90;;;;;;;28.25;27.30;96711.63;5059962;28;20193;-71